createdAt,value
2018-05-26T00:00:17.310Z,15.50
2018-05-26T00:02:45.701Z,15.50
2018-05-26T00:05:14.860Z,15.50
2018-05-26T00:07:43.013Z,15.50
2018-05-26T00:10:11.324Z,15.50
2018-05-26T00:12:40.356Z,15.50
2018-05-26T00:15:09.287Z,15.50
2018-05-26T00:17:37.387Z,15.40
2018-05-26T00:20:05.889Z,15.50
2018-05-26T00:22:34.260Z,15.50
2018-05-26T00:25:02.481Z,15.50
2018-05-26T00:27:30.696Z,15.30
2018-05-26T00:29:59.921Z,15.20
2018-05-26T00:32:28.081Z,15.20
2018-05-26T00:34:57.050Z,15.10
2018-05-26T00:37:25.427Z,15.10
2018-05-26T00:39:53.657Z,15.10
2018-05-26T00:42:22.891Z,15.20
2018-05-26T00:44:51.183Z,15.10
2018-05-26T00:47:19.810Z,15.20
2018-05-26T00:49:48.211Z,15.20
2018-05-26T00:52:16.540Z,15.20
2018-05-26T00:54:45.591Z,15.00
2018-05-26T00:57:13.955Z,15.00
2018-05-26T00:59:42.339Z,15.00
2018-05-26T01:02:10.874Z,15.00
2018-05-26T01:04:40.120Z,14.60
2018-05-26T01:07:08.440Z,14.60
2018-05-26T01:09:37.499Z,14.50
2018-05-26T01:12:05.794Z,14.50
2018-05-26T01:14:34.161Z,14.50
2018-05-26T01:17:03.177Z,14.50
2018-05-26T01:19:32.427Z,14.50
2018-05-26T01:22:01.909Z,14.50
2018-05-26T01:24:30.289Z,14.50
2018-05-26T01:26:58.434Z,14.50
2018-05-26T01:29:27.495Z,14.60
2018-05-26T01:31:55.778Z,14.50
2018-05-26T01:34:25.361Z,14.60
2018-05-26T01:36:53.859Z,14.40
2018-05-26T01:39:22.472Z,14.30
2018-05-26T01:41:51.525Z,14.20
2018-05-26T01:44:20.003Z,14.20
2018-05-26T01:46:48.448Z,14.20
2018-05-26T01:49:17.638Z,14.10
2018-05-26T01:51:46.810Z,14.10
2018-05-26T01:54:14.976Z,14.00
2018-05-26T01:56:43.456Z,14.00
2018-05-26T01:59:12.578Z,13.90
2018-05-26T02:01:41.033Z,13.90
2018-05-26T02:04:09.250Z,13.90
2018-05-26T02:06:37.761Z,13.90
2018-05-26T02:09:06.113Z,13.90
2018-05-26T02:11:34.210Z,14.00
2018-05-26T02:14:02.640Z,14.00
2018-05-26T02:16:31.553Z,14.00
2018-05-26T02:18:59.783Z,13.90
2018-05-26T02:21:27.975Z,14.00
2018-05-26T02:23:57.408Z,13.90
2018-05-26T02:26:25.845Z,13.90
2018-05-26T02:28:54.093Z,14.00
2018-05-26T02:31:23.348Z,14.00
2018-05-26T02:33:52.454Z,13.90
2018-05-26T02:36:20.856Z,13.90
2018-05-26T02:38:49.176Z,13.80
2018-05-26T02:41:18.334Z,13.70
2018-05-26T02:43:46.537Z,13.70
2018-05-26T02:46:14.932Z,13.80
2018-05-26T02:48:44.033Z,13.70
2018-05-26T02:51:12.677Z,13.70
2018-05-26T02:53:41.083Z,13.70
2018-05-26T02:56:10.140Z,13.80
2018-05-26T02:58:38.536Z,13.70
2018-05-26T03:01:06.803Z,13.80
2018-05-26T03:03:35.080Z,13.70
2018-05-26T03:06:08.939Z,13.70
2018-05-26T03:08:42.925Z,13.70
2018-05-26T03:11:17.628Z,13.60
2018-05-26T03:13:52.001Z,13.50
2018-05-26T03:16:20.373Z,13.50
2018-05-26T03:18:49.096Z,13.40
2018-05-26T03:21:17.369Z,13.30
2018-05-26T03:23:46.054Z,13.40
2018-05-26T03:26:14.341Z,13.50
2018-05-26T03:28:42.698Z,13.50
2018-05-26T03:31:10.899Z,13.50
2018-05-26T03:33:39.368Z,13.60
2018-05-26T03:36:07.500Z,13.60
2018-05-26T03:38:36.381Z,13.70
2018-05-26T03:41:04.827Z,13.70
2018-05-26T03:43:33.588Z,13.70
2018-05-26T03:46:01.825Z,13.70
2018-05-26T03:48:30.870Z,13.60
2018-05-26T03:50:59.413Z,13.60
2018-05-26T03:53:27.757Z,13.50
2018-05-26T03:58:11.097Z,13.70
2018-05-26T04:00:39.574Z,13.70
2018-05-26T04:03:07.868Z,13.60
2018-05-26T04:05:36.986Z,13.80
2018-05-26T04:08:05.347Z,13.80
2018-05-26T04:10:33.901Z,13.80
2018-05-26T04:13:02.202Z,13.70
2018-05-26T04:15:31.457Z,13.70
2018-05-26T04:17:59.818Z,13.70
2018-05-26T04:20:28.041Z,13.80
2018-05-26T04:22:56.432Z,13.80
2018-05-26T04:25:24.887Z,13.80
2018-05-26T04:27:53.183Z,13.70
2018-05-26T04:30:22.244Z,13.90
2018-05-26T04:32:50.529Z,13.80
2018-05-26T04:35:19.064Z,13.90
2018-05-26T04:37:47.893Z,13.70
2018-05-26T04:40:16.248Z,13.70
2018-05-26T04:42:44.547Z,13.70
2018-05-26T04:45:12.798Z,13.70
2018-05-26T04:47:40.818Z,13.80
2018-05-26T04:50:09.810Z,13.80
2018-05-26T04:52:38.270Z,13.80
2018-05-26T04:55:06.481Z,13.80
2018-05-26T04:57:34.825Z,13.70
2018-05-26T05:00:03.029Z,13.80
2018-05-26T05:02:31.381Z,13.80
2018-05-26T05:04:59.845Z,14.00
2018-05-26T05:07:28.110Z,14.20
2018-05-26T05:09:56.163Z,14.30
2018-05-26T05:12:25.032Z,14.20
2018-05-26T05:14:53.341Z,13.60
2018-05-26T05:17:21.460Z,13.80
2018-05-26T05:19:50.725Z,13.80
2018-05-26T05:22:19.219Z,13.80
2018-05-26T05:24:47.571Z,13.90
2018-05-26T05:27:16.619Z,13.90
2018-05-26T05:29:44.909Z,13.90
2018-05-26T05:32:13.317Z,14.10
2018-05-26T05:34:41.476Z,14.10
2018-05-26T05:37:09.831Z,14.00
2018-05-26T05:39:38.368Z,13.90
2018-05-26T05:42:07.023Z,14.10
2018-05-26T05:44:35.299Z,14.30
2018-05-26T05:47:03.532Z,14.10
2018-05-26T05:49:32.081Z,14.40
2018-05-26T05:52:00.365Z,14.50
2018-05-26T05:54:28.634Z,14.10
2018-05-26T05:56:57.037Z,14.40
2018-05-26T05:59:25.753Z,14.50
2018-05-26T06:01:54.034Z,14.60
2018-05-26T06:04:22.304Z,14.80
2018-05-26T06:06:50.852Z,15.00
2018-05-26T06:09:19.273Z,15.00
2018-05-26T06:11:47.692Z,15.10
2018-05-26T06:14:16.167Z,15.00
2018-05-26T06:16:44.655Z,15.00
2018-05-26T06:19:13.121Z,15.20
2018-05-26T06:21:41.252Z,15.20
2018-05-26T06:24:09.629Z,15.30
2018-05-26T06:26:37.914Z,15.20
2018-05-26T06:29:06.539Z,15.00
2018-05-26T06:31:34.890Z,15.10
2018-05-26T06:34:03.185Z,15.40
2018-05-26T06:36:31.544Z,15.30
2018-05-26T06:39:00.130Z,15.50
2018-05-26T06:41:28.598Z,15.70
2018-05-26T06:43:56.667Z,15.80
2018-05-26T06:46:25.566Z,16.20
2018-05-26T06:48:53.814Z,17.70
2018-05-26T06:51:22.206Z,19.00
2018-05-26T06:53:50.446Z,20.00
2018-05-26T06:56:18.949Z,20.80
2018-05-26T06:58:47.444Z,20.10
2018-05-26T07:01:15.872Z,18.90
2018-05-26T07:03:44.261Z,20.10
2018-05-26T07:06:12.772Z,21.50
2018-05-26T07:08:41.001Z,22.20
2018-05-26T07:11:09.502Z,23.20
2018-05-26T07:13:38.773Z,25.00
2018-05-26T07:16:07.139Z,24.90
2018-05-26T07:18:35.405Z,24.40
2018-05-26T07:21:03.862Z,23.80
2018-05-26T07:23:32.317Z,24.20
2018-05-26T07:26:01.441Z,25.70
2018-05-26T07:28:29.667Z,25.70
2018-05-26T07:30:58.166Z,25.50
2018-05-26T07:33:27.480Z,25.40
2018-05-26T07:35:55.874Z,25.40
2018-05-26T07:38:24.298Z,26.00
2018-05-26T07:40:52.887Z,26.10
2018-05-26T07:43:21.140Z,26.90
2018-05-26T07:45:49.616Z,26.30
2018-05-26T07:48:18.205Z,27.10
2018-05-26T07:50:46.611Z,26.40
2018-05-26T07:53:15.557Z,24.20
2018-05-26T07:55:44.902Z,24.80
2018-05-26T07:58:13.148Z,24.80
2018-05-26T08:00:41.321Z,26.20
2018-05-26T08:03:09.556Z,26.50
2018-05-26T08:05:38.741Z,25.60
2018-05-26T08:08:07.969Z,25.60
2018-05-26T08:10:36.216Z,25.60
2018-05-26T08:13:05.148Z,26.30
2018-05-26T08:15:33.690Z,26.30
2018-05-26T08:18:02.704Z,27.70
2018-05-26T08:20:31.082Z,27.70
2018-05-26T08:22:59.286Z,28.60
2018-05-26T08:25:27.873Z,28.50
2018-05-26T08:27:56.133Z,28.70
2018-05-26T08:30:24.419Z,27.40
2018-05-26T08:32:53.248Z,26.50
2018-05-26T08:35:22.271Z,27.70
2018-05-26T08:37:50.448Z,27.70
2018-05-26T08:40:18.642Z,28.10
2018-05-26T08:42:46.780Z,28.30
2018-05-26T08:45:14.987Z,28.40
2018-05-26T08:47:43.239Z,28.30
2018-05-26T08:50:11.569Z,29.20
2018-05-26T08:52:40.237Z,28.90
2018-05-26T08:55:08.449Z,27.20
2018-05-26T08:57:37.531Z,28.70
2018-05-26T09:00:05.867Z,28.80
2018-05-26T09:02:35.441Z,29.40
2018-05-26T09:05:03.900Z,29.40
2018-05-26T09:07:33.052Z,29.20
2018-05-26T09:10:01.438Z,29.20
2018-05-26T09:12:30.653Z,29.90
2018-05-26T09:14:58.946Z,29.40
2018-05-26T09:17:28.174Z,29.20
2018-05-26T09:19:57.383Z,28.40
2018-05-26T09:22:25.463Z,28.40
2018-05-26T09:24:53.583Z,29.30
2018-05-26T09:27:22.493Z,28.90
2018-05-26T09:29:51.588Z,29.90
2018-05-26T09:32:20.451Z,30.10
2018-05-26T09:34:49.291Z,30.10
2018-05-26T09:37:17.617Z,28.90
2018-05-26T09:39:46.220Z,28.80
2018-05-26T09:42:15.369Z,26.80
2018-05-26T09:44:43.686Z,26.70
2018-05-26T09:47:12.900Z,25.40
2018-05-26T09:49:41.831Z,25.80
2018-05-26T09:52:10.113Z,25.70
2018-05-26T09:54:38.229Z,25.70
2018-05-26T09:57:07.323Z,25.50
2018-05-26T09:59:36.325Z,25.60
2018-05-26T10:02:05.265Z,25.90
2018-05-26T10:04:33.461Z,25.90
2018-05-26T10:07:01.949Z,25.30
2018-05-26T10:09:30.953Z,25.60
2018-05-26T10:11:59.877Z,25.70
2018-05-26T10:14:28.253Z,25.70
2018-05-26T10:16:56.460Z,25.00
2018-05-26T10:19:25.074Z,25.00
2018-05-26T10:21:54.071Z,24.80
2018-05-26T10:24:23.198Z,25.30
2018-05-26T10:26:52.101Z,25.60
2018-05-26T10:29:20.482Z,25.60
2018-05-26T10:31:48.834Z,25.70
2018-05-26T10:34:17.792Z,25.60
2018-05-26T10:36:46.915Z,25.20
2018-05-26T10:39:15.741Z,25.50
2018-05-26T10:41:44.218Z,25.50
2018-05-26T10:44:12.639Z,25.50
2018-05-26T10:46:41.076Z,25.70
2018-05-26T10:49:09.918Z,25.60
2018-05-26T10:51:38.856Z,25.50
2018-05-26T10:54:07.380Z,25.50
2018-05-26T10:56:36.428Z,26.00
2018-05-26T10:59:05.139Z,26.00
2018-05-26T11:01:33.773Z,25.60
2018-05-26T11:04:02.283Z,25.70
2018-05-26T11:06:35.849Z,25.50
2018-05-26T11:09:04.369Z,25.20
2018-05-26T11:11:32.846Z,25.40
2018-05-26T11:14:01.167Z,25.60
2018-05-26T11:16:30.454Z,26.20
2018-05-26T11:18:58.780Z,26.20
2018-05-26T11:21:27.017Z,26.00
2018-05-26T11:23:56.217Z,25.80
2018-05-26T11:26:24.420Z,25.80
2018-05-26T11:28:52.799Z,25.90
2018-05-26T11:31:21.068Z,25.90
2018-05-26T11:33:49.868Z,26.00
2018-05-26T11:36:18.330Z,25.80
2018-05-26T11:38:46.608Z,26.00
2018-05-26T11:41:15.369Z,26.40
2018-05-26T11:43:44.268Z,25.90
2018-05-26T11:46:12.912Z,25.90
2018-05-26T11:48:41.507Z,26.00
2018-05-26T11:51:10.065Z,26.30
2018-05-26T11:53:38.395Z,25.80
2018-05-26T11:56:06.603Z,25.50
2018-05-26T11:58:35.097Z,25.60
2018-05-26T12:01:03.660Z,25.60
2018-05-26T12:03:31.982Z,26.00
2018-05-26T12:06:01.070Z,26.00
2018-05-26T12:08:29.427Z,25.90
2018-05-26T12:10:57.703Z,25.90
2018-05-26T12:13:25.835Z,25.90
2018-05-26T12:15:54.848Z,25.90
2018-05-26T12:18:23.832Z,25.90
2018-05-26T12:20:53.212Z,25.90
2018-05-26T12:23:21.383Z,26.10
2018-05-26T12:25:49.619Z,26.30
2018-05-26T12:28:17.951Z,26.20
2018-05-26T12:30:46.281Z,26.20
2018-05-26T12:33:14.895Z,26.40
2018-05-26T12:35:43.310Z,26.40
2018-05-26T12:38:11.493Z,26.30
2018-05-26T12:40:39.685Z,26.10
2018-05-26T12:43:08.085Z,25.70
2018-05-26T12:45:37.517Z,25.70
2018-05-26T12:48:06.890Z,25.70
2018-05-26T12:50:35.108Z,25.70
2018-05-26T12:53:04.606Z,25.70
2018-05-26T12:55:32.866Z,25.60
2018-05-26T12:58:02.002Z,25.80
2018-05-26T13:00:30.215Z,25.70
2018-05-26T13:02:58.457Z,25.60
2018-05-26T13:05:26.807Z,25.40
2018-05-26T13:07:55.341Z,25.30
2018-05-26T13:10:23.653Z,25.50
2018-05-26T13:12:52.741Z,25.40
2018-05-26T13:15:21.068Z,25.40
2018-05-26T13:17:49.394Z,25.20
2018-05-26T13:20:18.616Z,25.30
2018-05-26T13:22:47.136Z,25.30
2018-05-26T13:25:15.429Z,25.60
2018-05-26T13:27:44.026Z,25.60
2018-05-26T13:30:13.854Z,25.90
2018-05-26T13:32:42.055Z,26.40
2018-05-26T13:35:10.375Z,26.10
2018-05-26T13:37:38.645Z,25.90
2018-05-26T13:40:06.993Z,25.90
2018-05-26T13:42:35.377Z,25.70
2018-05-26T13:45:03.757Z,25.80
2018-05-26T13:47:32.306Z,26.10
2018-05-26T13:50:00.782Z,26.30
2018-05-26T13:52:29.273Z,26.50
2018-05-26T13:54:57.415Z,26.80
2018-05-26T13:57:26.564Z,26.40
2018-05-26T13:59:55.001Z,26.40
2018-05-26T14:02:24.061Z,26.80
2018-05-26T14:04:52.370Z,26.70
2018-05-26T14:07:21.679Z,27.00
2018-05-26T14:09:50.756Z,27.20
2018-05-26T14:12:19.767Z,26.90
2018-05-26T14:14:48.036Z,26.80
2018-05-26T14:17:17.132Z,27.10
2018-05-26T14:19:46.167Z,26.90
2018-05-26T14:22:14.445Z,26.90
2018-05-26T14:24:43.042Z,27.00
2018-05-26T14:27:12.289Z,27.10
2018-05-26T14:29:41.163Z,27.30
2018-05-26T14:32:09.728Z,27.20
2018-05-26T14:34:38.499Z,27.00
2018-05-26T14:37:06.747Z,27.10
2018-05-26T14:39:35.101Z,27.10
2018-05-26T14:42:03.755Z,26.60
2018-05-26T14:44:31.919Z,26.40
2018-05-26T14:47:00.992Z,26.40
2018-05-26T14:49:29.193Z,26.40
2018-05-26T14:51:57.355Z,26.60
2018-05-26T14:54:25.952Z,26.60
2018-05-26T14:56:54.268Z,26.40
2018-05-26T14:59:23.358Z,26.50
2018-05-26T15:01:51.969Z,26.50
2018-05-26T15:04:20.225Z,26.60
2018-05-26T15:06:48.565Z,26.60
2018-05-26T15:09:17.137Z,26.70
2018-05-26T15:11:45.359Z,26.80
2018-05-26T15:14:13.631Z,26.90
2018-05-26T15:16:41.969Z,26.80
2018-05-26T15:19:10.953Z,26.80
2018-05-26T15:21:41.148Z,27.10
2018-05-26T15:24:09.418Z,27.10
2018-05-26T15:26:37.807Z,26.70
2018-05-26T15:29:06.188Z,26.90
2018-05-26T15:31:34.487Z,27.00
2018-05-26T15:34:02.645Z,26.70
2018-05-26T15:36:31.728Z,27.00
2018-05-26T15:39:00.302Z,27.00
2018-05-26T15:41:28.801Z,27.20
2018-05-26T15:43:57.157Z,27.20
2018-05-26T15:46:25.464Z,27.10
2018-05-26T15:48:53.947Z,27.00
2018-05-26T15:51:22.177Z,26.90
2018-05-26T15:53:50.333Z,26.60
2018-05-26T15:56:19.707Z,26.80
2018-05-26T15:58:48.205Z,26.80
2018-05-26T16:01:16.395Z,26.80
2018-05-26T16:03:45.280Z,26.90
2018-05-26T16:06:13.915Z,26.90
2018-05-26T16:08:42.622Z,26.90
2018-05-26T16:11:11.657Z,26.60
2018-05-26T16:13:39.984Z,26.60
2018-05-26T16:16:08.509Z,26.50
2018-05-26T16:18:36.948Z,26.40
2018-05-26T16:21:05.190Z,26.40
2018-05-26T16:23:33.936Z,26.20
2018-05-26T16:26:02.789Z,26.30
2018-05-26T16:28:31.343Z,26.00
2018-05-26T16:30:59.696Z,25.90
2018-05-26T16:33:28.318Z,25.60
2018-05-26T16:35:56.495Z,25.50
2018-05-26T16:38:24.956Z,25.40
2018-05-26T16:40:53.824Z,25.40
2018-05-26T16:43:22.872Z,25.40
2018-05-26T16:45:51.005Z,25.20
2018-05-26T16:48:19.404Z,25.20
2018-05-26T16:50:47.991Z,25.10
2018-05-26T16:53:16.863Z,25.00
2018-05-26T16:55:45.012Z,25.00
2018-05-26T16:58:13.606Z,24.90
2018-05-26T17:00:41.900Z,24.90
2018-05-26T17:03:10.309Z,24.70
2018-05-26T17:05:38.673Z,24.10
2018-05-26T17:08:07.891Z,23.20
2018-05-26T17:10:36.591Z,23.20
2018-05-26T17:13:05.743Z,22.80
2018-05-26T17:15:34.715Z,22.80
2018-05-26T17:18:03.146Z,22.80
2018-05-26T17:20:31.491Z,22.80
2018-05-26T17:22:59.869Z,22.70
2018-05-26T17:25:28.035Z,22.70
2018-05-26T17:27:56.522Z,22.50
2018-05-26T17:30:25.166Z,22.50
2018-05-26T17:32:54.876Z,22.50
2018-05-26T17:35:24.225Z,22.50
2018-05-26T17:37:52.708Z,22.50
2018-05-26T17:40:21.015Z,22.50
2018-05-26T17:42:50.374Z,22.50
2018-05-26T17:45:18.656Z,22.50
2018-05-26T17:47:47.410Z,22.60
2018-05-26T17:50:16.009Z,22.70
2018-05-26T17:52:45.589Z,22.70
2018-05-26T17:55:14.249Z,22.70
2018-05-26T17:57:43.477Z,22.90
2018-05-26T18:00:12.929Z,22.90
2018-05-26T18:02:42.827Z,22.90
2018-05-26T18:05:11.462Z,22.90
2018-05-26T18:07:39.858Z,23.00
2018-05-26T18:10:08.400Z,23.00
2018-05-26T18:12:36.839Z,23.00
2018-05-26T18:15:06.098Z,23.10
2018-05-26T18:17:34.911Z,23.10
2018-05-26T18:20:03.610Z,23.00
2018-05-26T18:22:32.996Z,23.00
2018-05-26T18:25:01.235Z,23.00
2018-05-26T18:27:30.403Z,22.90
2018-05-26T18:30:00.180Z,22.90
2018-05-26T18:32:29.378Z,22.90
2018-05-26T18:34:58.466Z,22.90
2018-05-26T18:37:27.026Z,22.80
2018-05-26T18:39:56.245Z,22.80
2018-05-26T18:42:24.714Z,22.80
2018-05-26T18:44:53.109Z,22.70
2018-05-26T18:47:21.360Z,22.70
2018-05-26T18:49:50.000Z,22.60
2018-05-26T18:52:18.516Z,22.60
2018-05-26T18:54:47.462Z,22.50
2018-05-26T18:57:15.848Z,22.50
2018-05-26T18:59:44.521Z,22.40
2018-05-26T19:02:12.678Z,22.40
2018-05-26T19:04:40.849Z,22.30
2018-05-26T19:07:09.665Z,22.20
2018-05-26T19:09:38.955Z,22.10
2018-05-26T19:12:07.195Z,22.20
2018-05-26T19:14:35.388Z,22.10
2018-05-26T19:17:04.064Z,22.00
2018-05-26T19:19:32.228Z,21.90
2018-05-26T19:22:00.603Z,21.80
2018-05-26T19:24:28.891Z,21.70
2018-05-26T19:26:57.294Z,21.70
2018-05-26T19:29:26.262Z,21.60
2018-05-26T19:31:55.597Z,21.50
2018-05-26T19:34:24.071Z,21.50
2018-05-26T19:36:53.427Z,21.30
2018-05-26T19:39:21.876Z,21.30
2018-05-26T19:41:50.136Z,21.30
2018-05-26T19:44:18.332Z,21.20
2018-05-26T19:46:46.715Z,21.10
2018-05-26T19:49:14.949Z,21.10
2018-05-26T19:51:43.233Z,20.80
2018-05-26T19:54:11.818Z,20.60
2018-05-26T19:56:40.017Z,20.40
2018-05-26T19:59:09.083Z,20.00
2018-05-26T20:01:37.862Z,20.00
2018-05-26T20:04:06.106Z,19.90
2018-05-26T20:06:34.925Z,19.90
2018-05-26T20:09:03.186Z,19.90
2018-05-26T20:11:32.043Z,19.90
2018-05-26T20:14:00.173Z,19.90
2018-05-26T20:16:28.559Z,20.00
2018-05-26T20:18:57.438Z,20.00
2018-05-26T20:21:25.708Z,20.00
2018-05-26T20:23:53.821Z,20.00
2018-05-26T20:26:22.716Z,20.00
2018-05-26T20:28:51.760Z,19.90
2018-05-26T20:31:20.127Z,19.90
2018-05-26T20:33:49.332Z,19.30
2018-05-26T20:36:17.493Z,19.30
2018-05-26T20:38:45.921Z,19.20
2018-05-26T20:41:13.962Z,19.00
2018-05-26T20:43:42.158Z,18.90
2018-05-26T20:46:10.319Z,18.90
2018-05-26T20:48:38.567Z,19.00
2018-05-26T20:51:06.639Z,18.90
2018-05-26T20:53:35.017Z,19.00
2018-05-26T20:56:03.142Z,19.00
2018-05-26T20:58:32.025Z,19.00
2018-05-26T21:01:01.031Z,19.00
2018-05-26T21:03:29.884Z,19.00
2018-05-26T21:05:58.373Z,18.90
2018-05-26T21:08:26.575Z,19.00
2018-05-26T21:10:55.422Z,19.00
2018-05-26T21:13:24.251Z,18.70
2018-05-26T21:15:53.113Z,18.70
2018-05-26T21:18:21.380Z,18.60
2018-05-26T21:20:49.624Z,18.70
2018-05-26T21:23:18.582Z,18.50
2018-05-26T21:25:47.705Z,18.50
2018-05-26T21:28:15.750Z,18.50
2018-05-26T21:30:44.111Z,18.50
2018-05-26T21:33:12.474Z,18.40
2018-05-26T21:35:40.658Z,18.50
2018-05-26T21:38:08.810Z,18.50
2018-05-26T21:40:36.951Z,18.40
2018-05-26T21:43:06.037Z,18.40
2018-05-26T21:45:35.172Z,18.50
2018-05-26T21:48:03.350Z,18.40
2018-05-26T21:50:31.453Z,18.40
2018-05-26T21:53:01.334Z,18.20
2018-05-26T21:55:29.405Z,18.20
2018-05-26T21:57:57.559Z,18.20
2018-05-26T22:00:26.673Z,18.20
2018-05-26T22:02:54.792Z,18.20
2018-05-26T22:05:23.660Z,18.00
2018-05-26T22:07:51.824Z,18.00
2018-05-26T22:10:20.075Z,18.00
2018-05-26T22:12:48.616Z,18.00
2018-05-26T22:15:17.445Z,17.60
2018-05-26T22:17:45.766Z,17.50
2018-05-26T22:20:14.664Z,17.40
2018-05-26T22:22:45.156Z,17.40
2018-05-26T22:25:14.164Z,17.40
2018-05-26T22:27:42.485Z,17.30
2018-05-26T22:30:11.105Z,17.30
2018-05-26T22:32:39.209Z,17.20
2018-05-26T22:35:07.446Z,17.30
2018-05-26T22:37:35.569Z,17.30
2018-05-26T22:40:04.445Z,17.30
2018-05-26T22:42:33.231Z,17.30
2018-05-26T22:45:01.707Z,17.30
2018-05-26T22:47:29.749Z,17.30
2018-05-26T22:49:57.976Z,17.20
2018-05-26T22:52:26.936Z,17.00
2018-05-26T22:54:55.237Z,17.00
2018-05-26T22:57:23.725Z,17.00
2018-05-26T22:59:52.733Z,16.80
2018-05-26T23:02:20.965Z,16.80
2018-05-26T23:04:49.389Z,16.70
2018-05-26T23:07:19.449Z,16.40
2018-05-26T23:09:47.960Z,16.30
2018-05-26T23:12:16.108Z,16.20
2018-05-26T23:14:45.094Z,16.20
2018-05-26T23:17:13.150Z,16.10
2018-05-26T23:19:41.237Z,16.10
2018-05-26T23:22:09.495Z,16.10
2018-05-26T23:24:37.739Z,16.10
2018-05-26T23:27:05.861Z,16.10
2018-05-26T23:29:34.005Z,16.00
2018-05-26T23:32:02.061Z,16.10
2018-05-26T23:34:30.572Z,16.20
2018-05-26T23:36:58.670Z,16.30
2018-05-26T23:39:27.280Z,16.20
2018-05-26T23:41:56.139Z,16.20
2018-05-26T23:44:24.262Z,16.20
2018-05-26T23:46:52.351Z,16.30
2018-05-26T23:49:20.748Z,16.30
2018-05-26T23:51:48.920Z,16.20
2018-05-26T23:54:17.330Z,16.20
2018-05-26T23:56:46.172Z,16.20
2018-05-26T23:59:14.573Z,16.20
